Time;durP1;ratioP1;P1;durP2;ratioP2;P2;SDS_P1;SDS_P2;PMS_P1;PMS_P2;Temp;Humidity;BMP_temperature;BMP_pressure;BME280_temperature;BME280_humidity;BME280_pressure;Samples;Min_cycle;Max_cycle;Signal;HPM_P1;HPM_P2
2021/08/15 00:02:25;;;;;;;17.07;12.67;;;21.30;93.40;;;;;;5053660;28;20436;-82
2021/08/15 00:04:52;;;;;;;13.40;12.00;;;21.30;93.40;;;;;;5053548;28;20468;-81
2021/08/15 00:07:21;;;;;;;14.03;12.70;;;21.20;94.00;;;;;;5056438;28;20446;-81
2021/08/15 00:09:47;;;;;;;14.80;13.27;;;21.10;94.10;;;;;;5055419;28;20520;-81
2021/08/15 00:12:14;;;;;;;16.00;12.90;;;21.10;94.70;;;;;;5055344;28;20535;-82
2021/08/15 00:14:41;;;;;;;13.27;11.97;;;21.00;94.80;;;;;;5055812;28;20469;-81
2021/08/15 00:17:09;;;;;;;14.93;12.80;;;21.00;95.70;;;;;;5043734;28;20411;-82
2021/08/15 00:19:36;;;;;;;16.13;12.33;;;21.00;95.80;;;;;;5044237;28;20535;-81
2021/08/15 00:22:03;;;;;;;18.90;14.33;;;20.90;95.80;;;;;;5047169;28;20462;-82
2021/08/15 00:24:34;;;;;;;18.17;12.93;;;20.90;95.80;;;;;;5040227;28;20460;-82
2021/08/15 00:27:01;;;;;;;14.73;13.20;;;20.90;95.80;;;;;;5038990;28;20444;-82
2021/08/15 00:29:28;;;;;;;15.83;14.23;;;20.90;95.80;;;;;;5038107;28;20424;-82
2021/08/15 00:31:55;;;;;;;13.97;12.60;;;20.90;95.80;;;;;;5039644;28;20485;-82
2021/08/15 00:34:22;;;;;;;14.30;12.90;;;20.80;95.80;;;;;;5041969;28;20447;-81
2021/08/15 00:36:49;;;;;;;13.90;12.50;;;20.80;95.80;;;;;;5041122;28;21001;-81
2021/08/15 00:39:16;;;;;;;17.77;13.00;;;20.80;96.50;;;;;;5041557;28;20443;-82
2021/08/15 00:41:45;;;;;;;14.03;12.73;;;20.80;96.00;;;;;;5042941;28;20468;-82
2021/08/15 00:44:12;;;;;;;14.87;12.50;;;20.80;95.70;;;;;;5043599;28;20442;-82
2021/08/15 00:46:40;;;;;;;18.23;12.77;;;20.80;95.70;;;;;;5041932;28;20428;-82
2021/08/15 00:49:07;;;;;;;16.90;12.07;;;20.70;96.30;;;;;;5041812;28;20435;-82
2021/08/15 00:51:34;;;;;;;13.60;12.20;;;20.60;96.90;;;;;;5041908;28;20874;-82
2021/08/15 00:54:01;;;;;;;13.13;11.90;;;20.60;97.40;;;;;;5050930;28;20446;-82
2021/08/15 00:56:28;;;;;;;15.20;13.63;;;20.50;97.40;;;;;;5049150;28;20488;-82
2021/08/15 00:58:58;;;;;;;15.27;13.77;;;20.50;97.60;;;;;;5041057;28;20437;-82
2021/08/15 01:01:25;;;;;;;17.10;13.50;;;20.50;98.20;;;;;;5041531;28;20486;-83
2021/08/15 01:03:52;;;;;;;16.70;12.77;;;20.40;98.80;;;;;;5043255;28;20941;-83
2021/08/15 01:06:19;;;;;;;13.80;12.50;;;20.40;99.40;;;;;;5047941;28;20450;-83
2021/08/15 01:08:45;;;;;;;14.57;13.07;;;20.30;99.90;;;;;;5049489;28;20457;-83
2021/08/15 01:11:12;;;;;;;14.33;13.03;;;20.30;99.90;;;;;;5053567;28;20464;-82
2021/08/15 01:13:40;;;;;;;16.17;14.40;;;20.30;99.90;;;;;;5051499;28;20943;-82
2021/08/15 01:16:10;;;;;;;15.33;13.73;;;20.30;99.90;;;;;;5050770;28;20469;-83
2021/08/15 01:18:39;;;;;;;16.20;14.70;;;20.30;99.90;;;;;;5056576;28;20473;-84
2021/08/15 01:21:07;;;;;;;15.40;13.80;;;20.20;99.90;;;;;;5051939;28;20554;-82
2021/08/15 01:23:36;;;;;;;14.83;13.30;;;20.20;99.90;;;;;;5055495;28;20469;-83
2021/08/15 01:26:04;;;;;;;15.43;13.77;;;20.20;99.90;;;;;;5056840;28;20419;-82
2021/08/15 01:28:33;;;;;;;15.10;13.70;;;20.20;99.90;;;;;;5055272;28;20460;-83
2021/08/15 01:31:00;;;;;;;14.47;12.80;;;20.20;99.90;;;;;;5054711;28;20433;-82
2021/08/15 01:33:29;;;;;;;15.47;14.07;;;20.20;99.90;;;;;;5054242;28;20454;-83
2021/08/15 01:35:57;;;;;;;15.60;14.10;;;20.10;99.90;;;;;;5052452;28;20459;-82
2021/08/15 01:38:25;;;;;;;15.60;13.77;;;20.10;99.90;;;;;;5049620;28;20431;-82
2021/08/15 01:40:53;;;;;;;15.63;13.87;;;20.10;99.90;;;;;;5051972;28;20485;-83
2021/08/15 01:43:20;;;;;;;14.20;12.70;;;20.20;99.90;;;;;;5055912;28;20465;-82
2021/08/15 01:45:48;;;;;;;16.23;14.73;;;20.20;99.90;;;;;;5051290;28;20503;-82
2021/08/15 01:48:15;;;;;;;15.53;13.70;;;20.20;99.90;;;;;;5055011;28;20476;-82
2021/08/15 01:50:43;;;;;;;16.13;13.77;;;20.20;99.90;;;;;;5056613;28;20439;-83
2021/08/15 01:53:11;;;;;;;16.13;13.93;;;20.20;99.90;;;;;;5052252;28;20461;-82
2021/08/15 01:55:39;;;;;;;15.97;14.37;;;20.30;99.70;;;;;;5055282;28;20476;-82
2021/08/15 01:58:06;;;;;;;15.73;13.93;;;20.30;99.30;;;;;;5053965;28;20507;-82
2021/08/15 02:00:34;;;;;;;16.40;14.03;;;20.30;99.20;;;;;;5054154;28;20438;-82
2021/08/15 02:03:03;;;;;;;14.53;13.13;;;20.30;99.10;;;;;;5055445;28;20426;-82
2021/08/15 02:05:30;;;;;;;14.93;13.50;;;20.30;98.40;;;;;;5047806;28;20480;-82
2021/08/15 02:07:57;;;;;;;14.87;13.43;;;20.30;98.10;;;;;;5054015;28;20482;-84
2021/08/15 02:10:25;;;;;;;15.73;13.70;;;20.20;97.30;;;;;;5055738;28;20418;-82
2021/08/15 02:12:53;;;;;;;15.30;13.73;;;20.30;97.70;;;;;;5052308;28;20458;-82
2021/08/15 02:15:21;;;;;;;15.03;13.50;;;20.20;98.00;;;;;;5043917;28;20514;-83
2021/08/15 02:17:48;;;;;;;14.30;12.60;;;20.20;95.50;;;;;;5052962;28;20428;-83
2021/08/15 02:20:19;;;;;;;12.90;11.77;;;20.20;93.60;;;;;;5040783;28;20493;-81
2021/08/15 02:22:47;;;;;;;12.63;11.33;;;20.20;93.50;;;;;;5040124;28;20485;-83
2021/08/15 02:25:15;;;;;;;12.70;11.50;;;20.20;92.20;;;;;;5043469;28;20459;-81
2021/08/15 02:27:43;;;;;;;15.27;12.20;;;20.30;91.80;;;;;;5047698;28;20475;-82
2021/08/15 02:30:12;;;;;;;14.77;13.20;;;20.20;91.80;;;;;;5048369;28;20425;-81
2021/08/15 02:32:40;;;;;;;13.93;12.40;;;20.20;91.80;;;;;;5048592;28;20491;-81
2021/08/15 02:35:08;;;;;;;14.00;12.27;;;20.20;92.10;;;;;;5046901;28;20458;-82
2021/08/15 02:37:38;;;;;;;14.27;12.77;;;20.20;92.60;;;;;;5038992;28;20503;-82
2021/08/15 02:40:07;;;;;;;17.20;13.13;;;20.10;93.10;;;;;;5038250;28;20455;-82
2021/08/15 02:42:35;;;;;;;14.40;12.80;;;20.10;93.40;;;;;;5038508;28;20532;-82
2021/08/15 02:45:03;;;;;;;17.33;13.50;;;20.10;93.80;;;;;;5038118;28;20516;-81
2021/08/15 02:47:30;;;;;;;14.77;13.27;;;20.00;94.00;;;;;;5042617;28;20454;-82
2021/08/15 02:49:57;;;;;;;13.90;12.50;;;20.00;94.30;;;;;;5050327;28;20467;-81
2021/08/15 02:52:24;;;;;;;16.50;13.70;;;20.00;94.80;;;;;;5043178;28;20444;-81
2021/08/15 02:54:53;;;;;;;14.53;13.03;;;19.90;95.30;;;;;;5038525;28;20570;-82
2021/08/15 02:57:19;;;;;;;16.40;14.40;;;19.90;95.30;;;;;;5038564;28;20543;-82
2021/08/15 02:59:46;;;;;;;15.07;13.67;;;19.90;95.30;;;;;;5037450;28;20482;-82
2021/08/15 03:02:16;;;;;;;14.87;13.43;;;19.90;95.10;;;;;;5037024;28;20539;-82
2021/08/15 03:04:43;;;;;;;15.57;13.97;;;19.80;95.30;;;;;;5037538;28;20540;-83
2021/08/15 03:07:11;;;;;;;15.13;13.57;;;19.80;95.40;;;;;;5037431;28;21062;-82
2021/08/15 03:09:38;;;;;;;16.03;13.60;;;19.80;95.70;;;;;;5037639;28;20446;-82
2021/08/15 03:12:07;;;;;;;19.13;13.50;;;19.80;95.90;;;;;;5037572;28;20512;-82
2021/08/15 03:14:34;;;;;;;17.17;14.80;;;19.70;96.50;;;;;;5037577;28;20523;-82
2021/08/15 03:17:00;;;;;;;16.00;14.57;;;19.70;96.80;;;;;;5037869;28;20486;-81
2021/08/15 03:19:27;;;;;;;15.77;14.20;;;19.70;97.10;;;;;;5038054;28;20534;-82
2021/08/15 03:21:54;;;;;;;15.27;13.87;;;19.60;97.60;;;;;;5037969;28;20560;-82
2021/08/15 03:24:21;;;;;;;15.97;14.30;;;19.60;98.20;;;;;;5038624;28;20499;-81
2021/08/15 03:26:48;;;;;;;17.23;14.20;;;19.60;99.10;;;;;;5048467;28;20512;-82
2021/08/15 03:29:18;;;;;;;19.70;14.60;;;19.50;98.80;;;;;;5047880;28;20458;-82
2021/08/15 03:31:46;;;;;;;16.13;14.47;;;19.50;98.80;;;;;;5050679;28;20485;-83
2021/08/15 03:34:14;;;;;;;17.00;15.17;;;19.50;99.20;;;;;;5051184;28;20460;-83
2021/08/15 03:36:41;;;;;;;18.10;15.23;;;19.40;99.10;;;;;;5048701;28;20435;-83
2021/08/15 03:39:08;;;;;;;15.80;14.20;;;19.40;99.90;;;;;;5046532;28;20439;-82
2021/08/15 03:41:36;;;;;;;16.23;14.40;;;19.40;99.90;;;;;;5047943;28;20486;-83
2021/08/15 03:44:03;;;;;;;17.07;15.37;;;19.40;99.90;;;;;;5047579;28;20442;-82
2021/08/15 03:46:31;;;;;;;15.80;14.20;;;19.40;99.90;;;;;;5048412;28;20474;-83
2021/08/15 03:48:58;;;;;;;16.37;14.60;;;19.40;99.90;;;;;;5047497;28;20458;-82
2021/08/15 03:51:25;;;;;;;14.90;13.33;;;19.40;99.90;;;;;;5040298;28;20477;-82
2021/08/15 03:53:52;;;;;;;16.10;14.23;;;19.40;99.90;;;;;;5045133;28;20467;-82
2021/08/15 03:56:19;;;;;;;15.37;13.87;;;19.30;99.90;;;;;;5040714;28;20525;-82
2021/08/15 03:58:46;;;;;;;16.40;14.60;;;19.30;99.90;;;;;;5039722;28;20451;-82
2021/08/15 04:01:12;;;;;;;16.20;14.50;;;19.20;99.90;;;;;;5040404;28;20504;-82
2021/08/15 04:03:42;;;;;;;15.47;13.97;;;19.20;99.90;;;;;;5041039;28;20865;-82
2021/08/15 04:06:09;;;;;;;16.53;14.83;;;19.20;99.90;;;;;;5043780;28;20517;-83
2021/08/15 04:08:37;;;;;;;15.73;14.20;;;19.20;99.90;;;;;;5045877;28;20487;-83
2021/08/15 04:11:04;;;;;;;17.10;14.60;;;19.20;99.90;;;;;;5053582;28;20434;-83
2021/08/15 04:13:31;;;;;;;15.80;14.20;;;19.20;99.90;;;;;;5058523;28;20439;-83
2021/08/15 04:15:58;;;;;;;17.50;15.70;;;19.20;99.90;;;;;;5059537;28;20485;-83
2021/08/15 04:18:25;;;;;;;16.37;14.30;;;19.20;99.90;;;;;;5059528;28;20414;-83
2021/08/15 04:20:53;;;;;;;15.93;14.33;;;19.10;99.90;;;;;;5058361;28;21028;-82
2021/08/15 04:23:20;;;;;;;16.77;14.80;;;19.10;99.90;;;;;;5057018;28;20446;-82
2021/08/15 04:25:47;;;;;;;15.47;13.90;;;19.10;99.90;;;;;;5059212;28;20430;-83
2021/08/15 04:28:14;;;;;;;16.27;14.60;;;19.10;99.90;;;;;;5059047;28;20436;-83
2021/08/15 04:30:41;;;;;;;15.70;14.20;;;19.20;99.90;;;;;;5050495;28;20422;-82
2021/08/15 04:33:08;;;;;;;15.40;13.80;;;19.20;99.90;;;;;;5057886;28;20458;-83
2021/08/15 04:35:35;;;;;;;21.13;14.27;;;19.30;99.90;;;;;;5056899;28;20491;-82
2021/08/15 04:38:03;;;;;;;15.07;13.50;;;19.40;99.90;;;;;;5056149;28;20428;-83
2021/08/15 04:40:30;;;;;;;17.80;14.30;;;19.50;99.90;;;;;;5054465;28;20455;-81
2021/08/15 04:42:57;;;;;;;15.67;13.20;;;19.50;99.90;;;;;;5051267;28;20984;-82
2021/08/15 04:45:24;;;;;;;15.70;14.07;;;19.60;99.90;;;;;;5059596;28;20481;-82
2021/08/15 04:47:51;;;;;;;15.57;13.97;;;19.70;99.70;;;;;;5060753;28;20462;-82
2021/08/15 04:50:18;;;;;;;14.53;13.00;;;19.70;98.00;;;;;;5060233;28;20507;-82
2021/08/15 04:52:45;;;;;;;15.43;13.80;;;19.80;96.20;;;;;;5060450;28;20452;-82
2021/08/15 04:55:14;;;;;;;14.83;13.30;;;19.80;95.50;;;;;;5058613;28;20460;-82
2021/08/15 04:57:41;;;;;;;17.80;11.90;;;19.70;95.10;;;;;;5057274;28;20422;-82
2021/08/15 05:00:09;;;;;;;13.10;11.70;;;19.80;93.10;;;;;;5059927;28;20446;-82
2021/08/15 05:02:36;;;;;;;12.47;11.37;;;19.80;91.90;;;;;;5059912;28;20501;-83
2021/08/15 05:05:03;;;;;;;12.57;11.23;;;19.90;91.40;;;;;;5058278;28;20785;-82
2021/08/15 05:07:30;;;;;;;13.50;11.13;;;20.20;91.30;;;;;;5050890;28;20835;-82
2021/08/15 05:09:57;;;;;;;11.53;10.33;;;20.60;85.90;;;;;;5040078;28;20519;-82
2021/08/15 05:12:25;;;;;;;11.10;9.30;;;20.70;77.30;;;;;;5041807;28;20496;-82
2021/08/15 05:14:52;;;;;;;10.60;9.50;;;21.10;73.70;;;;;;5041702;28;20468;-82
2021/08/15 05:17:19;;;;;;;13.80;8.77;;;21.20;71.90;;;;;;5041876;28;20481;-82
2021/08/15 05:19:46;;;;;;;10.83;8.77;;;21.40;69.10;;;;;;5041213;28;20477;-82
2021/08/15 05:22:12;;;;;;;9.20;8.30;;;21.50;67.30;;;;;;5040851;28;20520;-82
2021/08/15 05:24:39;;;;;;;13.80;9.60;;;21.40;69.10;;;;;;5042398;28;20499;-82
2021/08/15 05:27:06;;;;;;;13.73;9.20;;;21.40;69.10;;;;;;5042723;28;20515;-82
2021/08/15 05:29:35;;;;;;;13.53;9.23;;;21.60;69.20;;;;;;5042060;28;20580;-82
2021/08/15 05:32:02;;;;;;;11.33;8.93;;;22.30;64.90;;;;;;5041028;28;20844;-82
2021/08/15 05:34:29;;;;;;;10.00;8.47;;;22.50;60.90;;;;;;5042959;28;20510;-82
2021/08/15 05:36:56;;;;;;;14.63;8.83;;;22.30;62.00;;;;;;5040583;28;20847;-82
2021/08/15 05:39:23;;;;;;;10.37;8.50;;;22.20;62.20;;;;;;5040848;28;20879;-82
2021/08/15 05:41:49;;;;;;;9.63;8.20;;;22.40;62.60;;;;;;5045416;28;20495;-81
2021/08/15 05:44:17;;;;;;;11.50;8.37;;;22.80;60.10;;;;;;5047984;28;20432;-82
2021/08/15 05:46:46;;;;;;;10.27;8.10;;;22.60;60.10;;;;;;5054387;28;20458;-82
2021/08/15 05:49:12;;;;;;;9.67;8.70;;;22.60;60.90;;;;;;5057375;28;20452;-81
2021/08/15 05:51:39;;;;;;;9.13;7.80;;;22.70;61.00;;;;;;5043224;28;20516;-81
2021/08/15 05:54:06;;;;;;;11.00;8.57;;;22.90;60.00;;;;;;5041007;28;20531;-81
2021/08/15 05:56:36;;;;;;;9.57;8.67;;;22.50;60.90;;;;;;5041388;28;20467;-81
2021/08/15 05:59:03;;;;;;;10.10;8.40;;;22.30;60.70;;;;;;5042578;28;20458;-82
2021/08/15 06:01:33;;;;;;;9.90;8.60;;;22.20;60.60;;;;;;5042832;28;20491;-81
2021/08/15 06:04:01;;;;;;;14.87;8.90;;;21.90;61.50;;;;;;5042671;28;20511;-82
2021/08/15 06:06:28;;;;;;;9.80;8.43;;;21.40;62.60;;;;;;5043175;28;20436;-82
2021/08/15 06:08:56;;;;;;;10.10;7.40;;;21.60;62.50;;;;;;5042638;28;20943;-81
2021/08/15 06:11:23;;;;;;;11.67;7.93;;;22.20;60.20;;;;;;5043228;28;20450;-82
2021/08/15 06:13:50;;;;;;;9.77;8.77;;;22.50;58.90;;;;;;5054921;28;20449;-83
2021/08/15 06:16:17;;;;;;;11.10;8.60;;;22.10;60.50;;;;;;5057540;28;20448;-84
2021/08/15 06:18:44;;;;;;;11.23;8.27;;;22.20;60.60;;;;;;5058411;28;20424;-84
2021/08/15 06:21:13;;;;;;;11.60;7.70;;;22.70;57.70;;;;;;5058066;28;20416;-83
2021/08/15 06:23:40;;;;;;;8.83;7.87;;;22.90;58.30;;;;;;5058609;28;20432;-84
2021/08/15 06:26:07;;;;;;;9.90;8.90;;;23.20;57.20;;;;;;5058582;28;20475;-84
2021/08/15 06:28:34;;;;;;;9.53;8.53;;;23.40;56.10;;;;;;5058445;28;20425;-84
2021/08/15 06:31:01;;;;;;;12.40;9.03;;;23.40;56.10;;;;;;5058479;28;20481;-84
2021/08/15 06:33:28;;;;;;;11.70;9.10;;;22.80;59.20;;;;;;5058560;28;20434;-84
2021/08/15 06:35:55;;;;;;;14.33;10.07;;;22.70;60.00;;;;;;5058439;28;20524;-84
2021/08/15 06:38:23;;;;;;;12.83;9.40;;;22.70;59.70;;;;;;5058507;28;20553;-84
2021/08/15 06:40:50;;;;;;;11.87;10.50;;;22.30;60.90;;;;;;5058722;28;20420;-83
2021/08/15 06:43:17;;;;;;;10.70;9.60;;;22.00;62.60;;;;;;5058415;28;20598;-83
2021/08/15 06:45:45;;;;;;;12.20;9.60;;;21.80;64.20;;;;;;5058517;28;20466;-84
2021/08/15 06:48:12;;;;;;;12.33;11.03;;;21.80;64.40;;;;;;5058394;28;20483;-85
2021/08/15 06:50:40;;;;;;;11.50;9.80;;;21.80;65.10;;;;;;5058374;28;20443;-81
2021/08/15 06:53:07;;;;;;;10.20;9.00;;;21.90;64.10;;;;;;5057804;28;20445;-82
2021/08/15 06:55:35;;;;;;;12.17;9.97;;;22.00;64.10;;;;;;5058068;28;20470;-82
2021/08/15 06:58:02;;;;;;;11.10;10.00;;;22.30;62.90;;;;;;5058027;28;20445;-81
2021/08/15 07:00:29;;;;;;;12.13;9.33;;;22.20;62.50;;;;;;5057950;28;20412;-82
2021/08/15 07:02:56;;;;;;;14.10;9.37;;;22.30;62.80;;;;;;5058051;28;20448;-82
2021/08/15 07:05:23;;;;;;;12.20;8.70;;;22.10;63.90;;;;;;5057500;28;20482;-84
2021/08/15 07:07:50;;;;;;;11.17;9.13;;;22.00;64.40;;;;;;5057375;28;20417;-83
2021/08/15 07:10:17;;;;;;;10.13;9.13;;;21.90;65.60;;;;;;5052031;28;20451;-82
2021/08/15 07:12:48;;;;;;;10.73;9.63;;;21.90;65.90;;;;;;5057749;28;20446;-82
2021/08/15 07:15:15;;;;;;;14.63;10.03;;;21.90;65.70;;;;;;5055631;28;20478;-81
2021/08/15 07:17:42;;;;;;;13.00;10.00;;;21.80;66.60;;;;;;5054513;28;20461;-82
2021/08/15 07:20:09;;;;;;;9.60;8.60;;;21.90;66.10;;;;;;5055264;28;20458;-82
2021/08/15 07:22:37;;;;;;;9.63;8.67;;;22.00;66.10;;;;;;5054260;28;20484;-83
2021/08/15 07:25:05;;;;;;;9.20;7.90;;;22.10;63.70;;;;;;5053903;28;20452;-82
2021/08/15 07:27:32;;;;;;;10.60;9.07;;;22.30;61.40;;;;;;5054244;28;20420;-83
2021/08/15 07:30:01;;;;;;;11.20;9.40;;;22.30;60.90;;;;;;5050154;28;20457;-83
2021/08/15 07:32:28;;;;;;;11.50;8.10;;;22.50;60.90;;;;;;5048736;28;20450;-83
2021/08/15 07:34:55;;;;;;;9.40;8.27;;;22.50;60.90;;;;;;5041407;28;20440;-82
2021/08/15 07:37:22;;;;;;;9.20;8.30;;;22.50;60.80;;;;;;5049171;28;20420;-82
2021/08/15 07:39:49;;;;;;;9.00;8.20;;;22.60;60.90;;;;;;5047273;28;20466;-82
2021/08/15 07:42:15;;;;;;;11.60;7.97;;;22.60;60.10;;;;;;5045352;28;20500;-81
2021/08/15 07:44:42;;;;;;;8.10;7.30;;;22.80;59.60;;;;;;5043589;28;20475;-82
2021/08/15 07:47:11;;;;;;;8.53;7.73;;;22.80;59.30;;;;;;5042667;28;20452;-82
2021/08/15 07:49:38;;;;;;;8.70;7.90;;;23.10;58.00;;;;;;5041986;28;21015;-82
2021/08/15 07:52:05;;;;;;;8.80;7.40;;;23.30;56.30;;;;;;5042722;28;20452;-83
2021/08/15 07:54:32;;;;;;;9.33;7.20;;;23.50;55.10;;;;;;5042168;28;20462;-83
2021/08/15 07:56:59;;;;;;;7.67;6.87;;;23.50;55.10;;;;;;5048687;28;20546;-82
2021/08/15 07:59:26;;;;;;;9.77;7.60;;;23.60;54.10;;;;;;5055202;28;20466;-82
2021/08/15 08:01:53;;;;;;;8.93;8.13;;;23.50;54.20;;;;;;5044173;28;20493;-83
2021/08/15 08:04:21;;;;;;;8.20;7.33;;;23.40;54.90;;;;;;5055742;28;20992;-83
2021/08/15 08:06:50;;;;;;;9.80;7.97;;;23.70;54.20;;;;;;5054563;28;20501;-83
2021/08/15 08:09:17;;;;;;;8.07;6.80;;;23.80;53.90;;;;;;5043386;28;20427;-82
2021/08/15 08:11:44;;;;;;;9.23;8.33;;;23.90;52.70;;;;;;5043824;28;20434;-81
2021/08/15 08:14:11;;;;;;;9.57;7.50;;;24.00;52.60;;;;;;5051023;28;20462;-82
2021/08/15 08:16:38;;;;;;;8.93;7.90;;;24.10;53.00;;;;;;5054390;28;20455;-82
2021/08/15 08:19:05;;;;;;;8.70;7.80;;;24.00;53.90;;;;;;5051576;28;20465;-82
2021/08/15 08:21:34;;;;;;;9.07;8.17;;;24.20;53.60;;;;;;5048040;28;20442;-81
2021/08/15 08:24:04;;;;;;;9.10;8.23;;;24.40;53.00;;;;;;5046214;28;20482;-83
2021/08/15 08:26:31;;;;;;;9.50;7.47;;;24.50;53.10;;;;;;5047726;28;20464;-83
2021/08/15 08:28:58;;;;;;;8.90;8.00;;;24.50;53.10;;;;;;5060609;28;20435;-82
2021/08/15 08:31:26;;;;;;;12.63;8.07;;;24.60;53.20;;;;;;5060715;28;20419;-84
2021/08/15 08:33:53;;;;;;;8.07;7.30;;;24.90;51.70;;;;;;5060230;28;20411;-82
2021/08/15 08:36:20;;;;;;;9.07;8.27;;;25.00;51.60;;;;;;5095199;22;20473;-78
2021/08/15 08:38:49;;;;;;;10.27;7.93;;;24.90;51.20;;;;;;5078670;28;20850;-78
2021/08/15 08:41:16;;;;;;;8.57;7.77;;;25.10;51.00;;;;;;5079923;28;20480;-77
2021/08/15 08:43:45;;;;;;;10.03;8.47;;;25.30;50.50;;;;;;5080047;28;20558;-79
2021/08/15 08:46:13;;;;;;;9.47;8.33;;;25.60;49.70;;;;;;5079518;28;20521;-78
2021/08/15 08:48:40;;;;;;;10.90;8.50;;;25.40;49.70;;;;;;5078517;28;20545;-78
2021/08/15 08:51:07;;;;;;;15.70;8.83;;;25.00;51.80;;;;;;5086129;28;20440;-78
2021/08/15 08:53:35;;;;;;;10.07;8.00;;;25.30;50.30;;;;;;5081418;28;21254;-78
2021/08/15 08:56:03;;;;;;;8.37;7.67;;;25.50;50.90;;;;;;5085017;28;20522;-76
2021/08/15 08:58:30;;;;;;;8.43;7.63;;;25.60;48.80;;;;;;5098772;28;20438;-76
2021/08/15 09:00:57;;;;;;;8.93;7.27;;;25.50;49.60;;;;;;5080085;28;20484;-78
2021/08/15 09:03:24;;;;;;;9.33;8.13;;;25.40;49.40;;;;;;5081067;28;20569;-78
2021/08/15 09:05:52;;;;;;;8.20;7.40;;;25.40;50.20;;;;;;5080755;28;21008;-78
2021/08/15 09:08:27;;;;;;;9.13;8.23;;;25.60;49.20;;;;;;5085439;28;20491;-77
2021/08/15 09:10:53;;;;;;;8.80;7.93;;;25.90;48.50;;;;;;5076515;28;20430;-76
2021/08/15 09:13:28;;;;;;;7.43;6.70;;;26.00;47.60;;;;;;5087281;28;20452;-77
2021/08/15 09:15:56;;;;;;;11.40;7.60;;;26.20;48.00;;;;;;5089508;28;20540;-78
2021/08/15 09:18:30;;;;;;;9.00;8.10;;;26.30;47.60;;;;;;5084977;28;20422;-78
2021/08/15 09:20:57;;;;;;;9.23;8.33;;;26.20;46.80;;;;;;5092167;28;20479;-78
2021/08/15 09:23:26;;;;;;;10.40;7.70;;;26.00;48.10;;;;;;5094787;28;21048;-78
2021/08/15 09:26:12;;;;;;;8.83;8.03;;;26.60;46.50;;;;;;5090812;28;20473;-76
2021/08/15 09:28:41;;;;;;;10.70;8.50;;;27.00;44.90;;;;;;5088029;28;20926;-78
2021/08/15 09:31:24;;;;;;;9.07;8.20;;;26.50;46.90;;;;;;5091900;28;20448;-78
2021/08/15 09:33:52;;;;;;;8.90;8.03;;;26.80;44.70;;;;;;5091261;28;20503;-79
2021/08/15 09:36:31;;;;;;;10.67;7.47;;;27.30;45.90;;;;;;5082905;28;20490;-78
2021/08/15 09:39:00;;;;;;;8.83;8.00;;;27.20;45.00;;;;;;5074513;28;20554;-77
2021/08/15 09:41:29;;;;;;;14.70;7.70;;;27.50;43.70;;;;;;5074458;28;20537;-77
2021/08/15 09:44:20;;;;;;;7.53;6.83;;;27.70;43.60;;;;;;5074417;28;20520;-78
2021/08/15 09:47:05;;;;;;;7.70;7.00;;;27.90;42.00;;;;;;5074437;28;20554;-78
2021/08/15 09:49:34;;;;;;;8.73;7.20;;;28.10;40.60;;;;;;5074179;28;20496;-77
2021/08/15 09:52:01;;;;;;;8.57;7.87;;;27.70;42.20;;;;;;5074488;28;20427;-77
2021/08/15 09:54:28;;;;;;;8.63;7.83;;;27.40;42.10;;;;;;5075097;28;20454;-77
2021/08/15 09:56:57;;;;;;;9.10;8.20;;;27.70;41.30;;;;;;5075715;28;20538;-78
2021/08/15 09:59:32;;;;;;;8.30;7.33;;;28.00;41.40;;;;;;5078191;28;20466;-78
2021/08/15 10:01:59;;;;;;;13.00;8.43;;;27.80;41.00;;;;;;5075498;28;20459;-77
2021/08/15 10:04:26;;;;;;;9.40;6.93;;;28.10;40.40;;;;;;5074585;28;20553;-78
2021/08/15 10:06:55;;;;;;;8.07;7.37;;;28.00;40.20;;;;;;5075267;28;20978;-78
2021/08/15 10:09:23;;;;;;;7.97;7.27;;;28.10;39.60;;;;;;5075045;28;20454;-78
2021/08/15 10:11:50;;;;;;;8.43;7.07;;;27.80;40.40;;;;;;5074928;28;20953;-79
2021/08/15 10:14:17;;;;;;;8.20;6.30;;;27.70;39.90;;;;;;5076024;28;20863;-77
2021/08/15 10:16:52;;;;;;;7.50;6.80;;;28.00;39.40;;;;;;5074445;28;20621;-79
2021/08/15 10:19:30;;;;;;;9.50;7.23;;;28.10;38.80;;;;;;5073556;28;20456;-78
2021/08/15 10:21:58;;;;;;;8.73;7.93;;;28.20;39.60;;;;;;5074401;28;20426;-79
2021/08/15 10:24:41;;;;;;;8.23;7.43;;;28.10;38.60;;;;;;5075689;28;20494;-79
2021/08/15 10:27:08;;;;;;;8.87;6.30;;;28.20;39.00;;;;;;5074975;28;20431;-78
2021/08/15 10:29:41;;;;;;;7.10;6.40;;;28.20;38.30;;;;;;5082746;28;20459;-78
2021/08/15 10:32:18;;;;;;;8.80;7.30;;;28.50;37.60;;;;;;5087611;28;20430;-80
2021/08/15 10:35:16;;;;;;;8.87;7.60;;;28.60;38.00;;;;;;5080725;28;20470;-77
2021/08/15 10:37:45;;;;;;;9.50;7.23;;;28.30;38.30;;;;;;5081750;28;20467;-78
2021/08/15 10:40:47;;;;;;;8.03;7.27;;;28.50;37.30;;;;;;5081785;28;20414;-78
2021/08/15 10:43:16;;;;;;;7.93;7.13;;;29.00;36.00;;;;;;5081878;28;20489;-79
2021/08/15 10:45:44;;;;;;;7.57;6.80;;;29.30;36.20;;;;;;5081217;28;20438;-78
2021/08/15 10:48:26;;;;;;;8.50;7.70;;;29.20;36.10;;;;;;5081151;28;20464;-79
2021/08/15 10:50:55;;;;;;;8.43;7.00;;;28.90;37.80;;;;;;5082238;28;20456;-78
2021/08/15 10:53:39;;;;;;;13.23;7.47;;;28.40;38.30;;;;;;5082577;28;20432;-78
2021/08/15 10:56:08;;;;;;;7.20;6.40;;;28.20;39.10;;;;;;5082664;28;20449;-77
2021/08/15 10:58:36;;;;;;;7.30;6.60;;;28.60;37.10;;;;;;5080110;28;20796;-78
2021/08/15 11:01:04;;;;;;;7.47;6.87;;;29.00;36.80;;;;;;5079015;28;20453;-80
2021/08/15 11:03:38;;;;;;;8.10;7.30;;;29.40;36.30;;;;;;5078384;28;20990;-78
2021/08/15 11:06:07;;;;;;;8.30;7.37;;;29.30;36.20;;;;;;5075886;28;20511;-78
2021/08/15 11:08:55;;;;;;;7.77;7.07;;;29.10;36.00;;;;;;5075213;28;20466;-79
2021/08/15 11:11:30;;;;;;;7.23;6.57;;;29.10;36.00;;;;;;5088329;28;20506;-78
2021/08/15 11:14:28;;;;;;;7.80;7.00;;;29.10;36.10;;;;;;5080637;28;20414;-79
2021/08/15 11:17:13;;;;;;;7.37;6.63;;;29.60;35.50;;;;;;5076391;28;20458;-77
2021/08/15 11:19:41;;;;;;;7.83;7.03;;;29.30;36.20;;;;;;5075400;28;20438;-78
2021/08/15 11:22:16;;;;;;;7.57;6.90;;;29.30;36.40;;;;;;5075088;28;20917;-78
2021/08/15 11:24:52;;;;;;;11.50;7.50;;;29.40;36.30;;;;;;5076092;28;21076;-79
2021/08/15 11:27:30;;;;;;;9.63;7.00;;;29.60;36.40;;;;;;5074953;28;20525;-78
2021/08/15 11:29:58;;;;;;;7.90;6.43;;;29.80;36.10;;;;;;5073823;28;20438;-78
2021/08/15 11:32:27;;;;;;;7.43;6.83;;;29.80;35.30;;;;;;5073575;28;20546;-78
2021/08/15 11:34:59;;;;;;;8.23;7.37;;;30.10;34.40;;;;;;5073362;28;20839;-78
2021/08/15 11:37:28;;;;;;;7.70;7.10;;;30.20;34.10;;;;;;5073562;28;20525;-78
2021/08/15 11:39:56;;;;;;;8.40;7.33;;;30.30;33.90;;;;;;5073174;28;20882;-78
2021/08/15 11:42:25;;;;;;;7.70;7.10;;;30.00;34.80;;;;;;5072525;28;20515;-78
2021/08/15 11:44:58;;;;;;;9.33;7.20;;;30.00;35.70;;;;;;5072688;28;20491;-77
2021/08/15 11:47:28;;;;;;;7.60;6.90;;;29.70;35.30;;;;;;5072679;28;20556;-78
2021/08/15 11:50:00;;;;;;;8.83;7.27;;;30.00;34.50;;;;;;5072197;28;20433;-78
2021/08/15 11:52:31;;;;;;;8.60;7.77;;;29.90;34.60;;;;;;5072319;28;20554;-77
2021/08/15 11:54:58;;;;;;;8.80;7.17;;;29.40;36.30;;;;;;5072656;28;20541;-77
2021/08/15 11:57:26;;;;;;;8.47;7.30;;;29.90;35.40;;;;;;5073967;28;20795;-77
2021/08/15 12:00:04;;;;;;;7.33;6.73;;;30.30;35.00;;;;;;5074311;28;20554;-79
2021/08/15 12:02:31;;;;;;;8.40;7.50;;;30.60;33.40;;;;;;5073430;28;20431;-78
2021/08/15 12:04:59;;;;;;;7.87;7.00;;;30.10;34.10;;;;;;5073105;28;20481;-78
2021/08/15 12:07:29;;;;;;;7.20;6.40;;;30.10;34.90;;;;;;5073476;28;20453;-78
2021/08/15 12:10:26;;;;;;;7.27;6.57;;;30.00;34.40;;;;;;5073578;28;20988;-78
2021/08/15 12:13:16;;;;;;;8.23;6.90;;;30.30;33.60;;;;;;5073481;28;20438;-79
2021/08/15 12:15:46;;;;;;;6.93;6.37;;;30.80;32.90;;;;;;5074832;28;20482;-79
2021/08/15 12:18:31;;;;;;;7.37;6.60;;;31.10;32.20;;;;;;5074501;28;20527;-79
2021/08/15 12:21:01;;;;;;;8.70;7.70;;;31.10;32.20;;;;;;5074454;28;20509;-79
2021/08/15 12:23:29;;;;;;;9.30;6.97;;;31.50;30.70;;;;;;5074341;28;20592;-78
2021/08/15 12:26:04;;;;;;;7.73;7.00;;;30.90;32.00;;;;;;5074703;28;20458;-79
2021/08/15 12:28:37;;;;;;;9.80;7.10;;;31.20;31.30;;;;;;5075989;28;20586;-77
2021/08/15 12:31:24;;;;;;;7.40;6.70;;;31.10;31.60;;;;;;5078628;28;20460;-78
2021/08/15 12:34:03;;;;;;;8.63;6.87;;;30.80;32.00;;;;;;5080371;28;20502;-78
2021/08/15 12:36:49;;;;;;;9.73;6.50;;;30.80;32.50;;;;;;5078015;28;20553;-78
2021/08/15 12:39:17;;;;;;;10.63;6.50;;;31.30;31.90;;;;;;5077001;28;20467;-77
2021/08/15 12:41:56;;;;;;;6.87;6.23;;;31.30;31.90;;;;;;5077537;28;20481;-79
2021/08/15 12:44:25;;;;;;;6.37;5.80;;;31.00;32.10;;;;;;5075755;28;20487;-78
2021/08/15 12:47:13;;;;;;;5.90;5.40;;;30.80;31.90;;;;;;5075145;28;20835;-78